Time;durP1;ratioP1;P1;durP2;ratioP2;P2;SDS_P1;SDS_P2;PMS_P1;PMS_P2;Temp;Humidity;BMP_temperature;BMP_pressure;BME280_temperature;BME280_humidity;BME280_pressure;Samples;Min_cycle;Max_cycle;Signal;HPM_P1;HPM_P2
2021/12/04 00:00:53;;;;;;;24.20;14.15;;;;;;;;;;5130833;27;20824;-66
2021/12/04 00:03:20;;;;;;;29.63;15.25;;;;;;;;;;5130214;27;20048;-66
2021/12/04 00:05:52;;;;;;;24.63;13.93;;;;;;;;;;5130403;27;20071;-67
2021/12/04 00:08:18;;;;;;;35.53;15.65;;;;;;;;;;5130479;27;20054;-67
2021/12/04 00:10:45;;;;;;;27.92;14.15;;;;;;;;;;5130226;27;20135;-67
2021/12/04 00:13:11;;;;;;;29.50;13.85;;;;;;;;;;5129996;27;20142;-67
2021/12/04 00:15:37;;;;;;;29.23;14.10;;;;;;;;;;5130086;27;20051;-67
2021/12/04 00:18:04;;;;;;;32.03;15.30;;;;;;;;;;5126491;27;20056;-67
2021/12/04 00:20:30;;;;;;;26.85;14.02;;;;;;;;;;5108946;27;20055;-66
2021/12/04 00:22:59;;;;;;;26.73;14.00;;;;;;;;;;5112383;27;20056;-66
2021/12/04 00:25:27;;;;;;;28.42;14.35;;;;;;;;;;5113043;27;20139;-67
2021/12/04 00:27:53;;;;;;;31.38;15.18;;;;;;;;;;5127785;27;20132;-66
2021/12/04 00:30:20;;;;;;;36.88;16.15;;;;;;;;;;5119384;27;20052;-68
2021/12/04 00:32:56;;;;;;;32.97;15.32;;;;;;;;;;5119021;27;20421;-67
2021/12/04 00:43:16;;;;;;;28.92;14.85;;;;;;;;;;5133900;27;20146;-66
2021/12/04 00:49:13;;;;;;;34.50;15.88;;;;;;;;;;5132920;27;20437;-66
2021/12/04 00:51:42;;;;;;;31.63;15.30;;;;;;;;;;5131143;27;20147;-66
2021/12/04 00:54:12;;;;;;;40.33;17.52;;;;;;;;;;5112530;28;20076;-66
2021/12/04 00:56:39;;;;;;;39.25;17.65;;;;;;;;;;5112332;28;20056;-67
2021/12/04 00:59:06;;;;;;;34.47;16.50;;;;;;;;;;5112526;28;20052;-65
2021/12/04 01:01:33;;;;;;;34.05;15.85;;;;;;;;;;5112326;28;20134;-66
2021/12/04 01:03:59;;;;;;;37.25;16.48;;;;;;;;;;5119734;27;20061;-66
2021/12/04 01:06:26;;;;;;;32.72;15.63;;;;;;;;;;5132684;27;20166;-66
2021/12/04 01:08:52;;;;;;;42.75;17.58;;;;;;;;;;5132089;27;20055;-66
2021/12/04 01:11:19;;;;;;;38.83;17.65;;;;;;;;;;5132360;27;20143;-66
2021/12/04 01:13:45;;;;;;;37.65;15.80;;;;;;;;;;5132707;27;20545;-66
2021/12/04 01:16:14;;;;;;;38.97;16.98;;;;;;;;;;5132807;27;20058;-66
2021/12/04 01:18:40;;;;;;;;;;;;;;;;;;5133137;27;20055;-66
2021/12/04 01:21:06;;;;;;;30.25;13.68;;;;;;;;;;5130619;27;43745;-67
2021/12/04 01:23:33;;;;;;;44.97;17.77;;;;;;;;;;5130894;27;20468;-66
2021/12/04 01:25:59;;;;;;;35.22;15.32;;;;;;;;;;5128737;27;20513;-66
2021/12/04 01:28:25;;;;;;;39.58;15.88;;;;;;;;;;5109970;27;20572;-66
2021/12/04 01:30:53;;;;;;;40.35;16.98;;;;;;;;;;5110322;28;20552;-66
2021/12/04 01:33:19;;;;;;;38.58;17.25;;;;;;;;;;5118482;27;20099;-66
2021/12/04 01:35:45;;;;;;;36.70;16.40;;;;;;;;;;5109886;27;20494;-66
2021/12/04 01:38:12;;;;;;;48.17;17.63;;;;;;;;;;5110824;27;20082;-65
2021/12/04 01:40:38;;;;;;;52.97;18.00;;;;;;;;;;5114389;27;20048;-66
2021/12/04 01:43:07;;;;;;;48.90;18.08;;;;;;;;;;5128227;27;20062;-66
2021/12/04 01:45:33;;;;;;;;;;;;;;;;;;5115170;27;20102;-66
2021/12/04 01:48:00;;;;;;;49.88;18.80;;;;;;;;;;5112514;27;44058;-66
2021/12/04 01:50:28;;;;;;;54.55;18.20;;;;;;;;;;5113501;27;20143;-66
2021/12/04 01:52:56;;;;;;;55.05;19.10;;;;;;;;;;5123381;27;20089;-67
2021/12/04 01:55:23;;;;;;;54.20;21.02;;;;;;;;;;5108869;27;20048;-66
2021/12/04 01:57:50;;;;;;;61.33;20.23;;;;;;;;;;5110054;27;20056;-66
2021/12/04 02:00:16;;;;;;;72.75;21.60;;;;;;;;;;5126465;27;20516;-66
2021/12/04 02:02:42;;;;;;;63.35;21.40;;;;;;;;;;5114770;27;20519;-67
2021/12/04 02:05:09;;;;;;;78.60;21.98;;;;;;;;;;5110475;27;20055;-66
2021/12/04 02:07:35;;;;;;;66.22;21.38;;;;;;;;;;5110253;27;20048;-66
2021/12/04 02:10:05;;;;;;;81.32;22.52;;;;;;;;;;5109847;27;20056;-66
2021/12/04 02:12:31;;;;;;;82.65;22.02;;;;;;;;;;5110184;27;20044;-67
2021/12/04 02:14:59;;;;;;;94.35;23.98;;;;;;;;;;5109853;27;20078;-66
2021/12/04 02:17:25;;;;;;;84.65;23.67;;;;;;;;;;5109961;28;20052;-66
2021/12/04 02:19:52;;;;;;;94.28;24.27;;;;;;;;;;5058960;28;1137926;-66
2021/12/04 02:22:18;;;;;;;107.65;26.25;;;;;;;;;;5091212;27;20279;-66
2021/12/04 02:24:44;;;;;;;107.00;23.55;;;;;;;;;;5089866;28;20131;-66
2021/12/04 02:27:13;;;;;;;82.85;22.27;;;;;;;;;;5102394;28;20048;-67
2021/12/04 02:29:46;;;;;;;87.05;24.30;;;;;;;;;;5097230;28;20047;-67
2021/12/04 02:32:13;;;;;;;125.38;25.75;;;;;;;;;;5104858;28;20052;-67
2021/12/04 02:34:39;;;;;;;137.93;27.23;;;;;;;;;;5090477;27;20139;-67
2021/12/04 02:37:07;;;;;;;106.35;25.67;;;;;;;;;;5099518;28;20139;-67
2021/12/04 02:39:35;;;;;;;114.35;24.90;;;;;;;;;;5110505;28;20048;-66
2021/12/04 02:42:05;;;;;;;112.97;24.38;;;;;;;;;;5092481;28;20053;-66
2021/12/04 02:44:35;;;;;;;134.40;27.88;;;;;;;;;;5088872;28;20613;-67
2021/12/04 02:47:02;;;;;;;121.43;26.38;;;;;;;;;;5088908;28;20540;-66
2021/12/04 02:49:28;;;;;;;106.15;26.33;;;;;;;;;;5089671;28;20076;-66
2021/12/04 02:51:54;;;;;;;132.20;28.67;;;;;;;;;;5090790;28;20060;-66
2021/12/04 02:54:20;;;;;;;111.55;24.77;;;;;;;;;;5099188;27;20053;-66
2021/12/04 02:56:49;;;;;;;148.18;27.90;;;;;;;;;;5098707;28;20067;-67
2021/12/04 02:59:16;;;;;;;117.68;27.98;;;;;;;;;;5092360;27;20059;-66
2021/12/04 03:01:42;;;;;;;137.90;27.35;;;;;;;;;;5100547;27;20079;-66
2021/12/04 03:04:10;;;;;;;150.30;30.10;;;;;;;;;;5092774;28;20498;-66
2021/12/04 03:06:41;;;;;;;156.10;28.65;;;;;;;;;;5089994;28;20057;-66
2021/12/04 03:09:08;;;;;;;153.05;28.92;;;;;;;;;;5089960;28;20079;-66
2021/12/04 03:11:34;;;;;;;128.18;29.73;;;;;;;;;;5090088;28;20416;-66
2021/12/04 03:14:01;;;;;;;150.00;29.02;;;;;;;;;;5088245;28;20558;-67
2021/12/04 03:16:31;;;;;;;145.38;27.98;;;;;;;;;;5088815;27;20190;-67
2021/12/04 03:18:58;;;;;;;152.35;29.73;;;;;;;;;;5089797;28;20513;-66
2021/12/04 03:21:25;;;;;;;143.88;28.00;;;;;;;;;;5089504;28;20433;-67
2021/12/04 03:23:55;;;;;;;135.88;28.98;;;;;;;;;;5092201;28;20087;-66
2021/12/04 03:26:22;;;;;;;118.07;28.83;;;;;;;;;;5105438;28;20143;-66
2021/12/04 03:28:50;;;;;;;179.23;29.50;;;;;;;;;;5092874;27;20062;-67
2021/12/04 03:31:41;;;;;;;114.63;26.58;;;;;;;;;;5094222;28;20518;-66
2021/12/04 03:42:19;;;;;;;130.88;29.38;;;;;;;;;;5104492;28;20101;-67
2021/12/04 03:44:45;;;;;;;126.68;28.80;;;;;;;;;;5088919;28;20056;-67
2021/12/04 03:47:12;;;;;;;182.15;29.35;;;;;;;;;;5091931;28;20442;-67
2021/12/04 03:49:38;;;;;;;155.68;29.92;;;;;;;;;;5109624;28;20056;-67
2021/12/04 03:52:05;;;;;;;148.05;29.02;;;;;;;;;;5106354;28;20062;-67
2021/12/04 03:54:31;;;;;;;128.98;27.17;;;;;;;;;;5088958;28;20148;-68
2021/12/04 03:57:04;;;;;;;136.80;28.98;;;;;;;;;;5089450;28;20058;-67
2021/12/04 03:59:37;;;;;;;168.93;31.02;;;;;;;;;;5089923;28;20048;-67
2021/12/04 04:02:04;;;;;;;148.45;29.38;;;;;;;;;;5092017;27;20058;-67
2021/12/04 04:04:32;;;;;;;143.77;29.45;;;;;;;;;;5087325;28;20048;-67
2021/12/04 04:07:01;;;;;;;149.07;28.55;;;;;;;;;;5095044;28;20044;-67
2021/12/04 04:09:27;;;;;;;128.10;27.65;;;;;;;;;;5107922;28;20052;-67
2021/12/04 04:11:54;;;;;;;137.90;28.00;;;;;;;;;;5107595;28;20059;-67
2021/12/04 04:14:22;;;;;;;191.77;29.13;;;;;;;;;;5108195;28;20536;-67
2021/12/04 04:16:49;;;;;;;129.15;28.95;;;;;;;;;;5108763;28;20444;-67
2021/12/04 04:19:15;;;;;;;135.13;27.33;;;;;;;;;;5108202;28;20064;-68
2021/12/04 04:21:42;;;;;;;134.30;28.27;;;;;;;;;;5108822;28;20060;-67
2021/12/04 04:24:09;;;;;;;126.47;27.52;;;;;;;;;;5108385;28;20063;-67
2021/12/04 04:26:36;;;;;;;123.93;27.92;;;;;;;;;;5108042;28;20044;-67
2021/12/04 04:29:06;;;;;;;160.35;28.52;;;;;;;;;;5107812;28;20058;-67
2021/12/04 04:31:33;;;;;;;200.00;29.50;;;;;;;;;;5108510;28;20059;-68
2021/12/04 04:34:03;;;;;;;158.43;28.02;;;;;;;;;;5108537;28;20514;-67
2021/12/04 04:58:53;;;;;;;247.63;30.50;;;;;;;;;;5014397;28;20046;-67
2021/12/04 05:01:32;;;;;;;185.98;28.60;;;;;;;;;;5085888;28;20147;-67
2021/12/04 05:12:23;;;;;;;162.02;28.27;;;;;;;;;;5091834;28;20052;-67
2021/12/04 05:14:55;;;;;;;203.73;29.42;;;;;;;;;;5096843;27;20067;-67
2021/12/04 05:20:07;;;;;;;211.82;29.95;;;;;;;;;;5111182;28;20062;-67
2021/12/04 05:22:33;;;;;;;224.38;32.22;;;;;;;;;;5109822;28;20067;-67
2021/12/04 05:25:00;;;;;;;143.80;26.23;;;;;;;;;;5092986;28;20049;-67
2021/12/04 05:27:26;;;;;;;190.20;28.70;;;;;;;;;;5094367;28;20432;-67
2021/12/04 05:29:52;;;;;;;180.48;29.13;;;;;;;;;;5111072;28;20058;-67
2021/12/04 05:32:19;;;;;;;139.30;28.08;;;;;;;;;;5103231;28;20063;-66
2021/12/04 05:34:45;;;;;;;187.88;29.70;;;;;;;;;;5090430;28;20653;-66
2021/12/04 05:37:11;;;;;;;160.85;28.63;;;;;;;;;;5090298;28;20059;-66
2021/12/04 05:39:38;;;;;;;195.45;31.50;;;;;;;;;;5090210;28;20056;-67
2021/12/04 05:42:04;;;;;;;158.27;28.25;;;;;;;;;;5089881;28;20180;-67
2021/12/04 05:44:31;;;;;;;214.95;29.02;;;;;;;;;;5097816;28;20520;-67
2021/12/04 05:49:34;;;;;;;176.88;30.60;;;;;;;;;;5110238;28;20446;-67
2021/12/04 05:57:05;;;;;;;273.90;33.05;;;;;;;;;;5110653;28;20052;-68
2021/12/04 05:59:31;;;;;;;178.13;27.80;;;;;;;;;;5110688;28;20048;-68
2021/12/04 06:01:58;;;;;;;143.63;28.08;;;;;;;;;;5110255;28;20058;-69
2021/12/04 06:04:26;;;;;;;209.25;31.38;;;;;;;;;;5110664;28;20595;-68
2021/12/04 06:06:52;;;;;;;227.37;31.20;;;;;;;;;;5110003;28;20536;-68
2021/12/04 06:09:19;;;;;;;179.88;29.50;;;;;;;;;;5110464;28;20083;-68
2021/12/04 06:11:46;;;;;;;187.93;30.10;;;;;;;;;;5109443;28;20056;-68
2021/12/04 06:14:12;;;;;;;178.85;30.75;;;;;;;;;;5110584;28;20044;-68
2021/12/04 06:16:38;;;;;;;172.23;29.50;;;;;;;;;;5110610;28;20074;-68
2021/12/04 06:19:14;;;;;;;154.43;27.85;;;;;;;;;;5108264;28;20506;-69
2021/12/04 06:24:25;;;;;;;205.85;29.77;;;;;;;;;;5089252;28;20048;-68
2021/12/04 06:26:51;;;;;;;154.38;28.15;;;;;;;;;;5095169;28;20059;-69
2021/12/04 06:29:18;;;;;;;187.18;29.40;;;;;;;;;;5097728;28;20060;-68
2021/12/04 06:31:44;;;;;;;158.70;28.73;;;;;;;;;;5107710;28;20056;-69
2021/12/04 06:34:11;;;;;;;223.95;31.50;;;;;;;;;;5097637;27;20048;-67
2021/12/04 06:36:37;;;;;;;148.43;28.50;;;;;;;;;;5091666;28;20163;-68
2021/12/04 06:39:04;;;;;;;195.43;30.45;;;;;;;;;;5089360;28;20159;-68
2021/12/04 06:41:31;;;;;;;261.85;32.60;;;;;;;;;;5092158;28;20062;-69
2021/12/04 06:43:57;;;;;;;179.65;29.13;;;;;;;;;;5102977;28;20052;-68
2021/12/04 06:46:24;;;;;;;212.23;31.15;;;;;;;;;;5109854;28;20052;-69
2021/12/04 06:49:03;;;;;;;186.77;29.73;;;;;;;;;;5088959;28;20584;-68
2021/12/04 06:51:41;;;;;;;156.73;29.35;;;;;;;;;;5089057;28;20076;-68
2021/12/04 06:54:20;;;;;;;158.68;29.55;;;;;;;;;;5088990;28;20568;-68
2021/12/04 06:56:46;;;;;;;191.02;30.67;;;;;;;;;;5089485;28;20084;-68
2021/12/04 06:59:19;;;;;;;150.48;30.73;;;;;;;;;;5089147;28;20049;-68
2021/12/04 07:01:45;;;;;;;120.30;27.50;;;;;;;;;;5088153;28;20056;-69
2021/12/04 07:04:15;;;;;;;325.63;34.97;;;;;;;;;;5088520;28;20206;-69
2021/12/04 07:06:42;;;;;;;156.82;30.20;;;;;;;;;;5089084;28;20535;-68
2021/12/04 07:09:09;;;;;;;132.32;26.67;;;;;;;;;;5088879;28;20063;-68
2021/12/04 07:11:35;;;;;;;155.65;28.25;;;;;;;;;;5088993;28;20142;-68
2021/12/04 07:14:01;;;;;;;152.10;29.25;;;;;;;;;;5097732;27;20044;-68
2021/12/04 07:16:29;;;;;;;182.68;29.15;;;;;;;;;;5109021;28;20870;-68
2021/12/04 07:18:55;;;;;;;195.80;29.70;;;;;;;;;;5109625;28;20055;-69
2021/12/04 07:21:22;;;;;;;197.15;29.45;;;;;;;;;;5108918;28;20120;-67
2021/12/04 07:23:48;;;;;;;153.82;28.27;;;;;;;;;;5108884;28;20060;-67
2021/12/04 07:26:17;;;;;;;145.32;29.30;;;;;;;;;;5108327;28;20052;-67
2021/12/04 07:28:43;;;;;;;143.77;28.60;;;;;;;;;;5109537;27;20044;-67
2021/12/04 07:31:09;;;;;;;125.05;28.15;;;;;;;;;;5108985;28;20138;-67
2021/12/04 07:33:36;;;;;;;193.23;30.02;;;;;;;;;;5109332;28;20052;-67
2021/12/04 07:36:03;;;;;;;138.25;26.92;;;;;;;;;;5108181;28;20052;-67
2021/12/04 07:38:29;;;;;;;158.63;29.77;;;;;;;;;;5109076;28;20079;-66
2021/12/04 07:40:57;;;;;;;234.35;31.75;;;;;;;;;;5109331;28;20058;-67
2021/12/04 07:43:24;;;;;;;177.23;29.37;;;;;;;;;;5129471;27;20142;-67
2021/12/04 07:45:51;;;;;;;136.10;27.92;;;;;;;;;;5129316;27;20329;-67
2021/12/04 07:48:17;;;;;;;195.98;30.55;;;;;;;;;;5129919;27;20076;-68
2021/12/04 07:50:43;;;;;;;177.00;29.65;;;;;;;;;;5128647;27;20051;-68
2021/12/04 07:53:10;;;;;;;165.40;29.38;;;;;;;;;;5129021;27;20898;-68
2021/12/04 07:55:36;;;;;;;224.82;31.92;;;;;;;;;;5129538;27;20132;-68
2021/12/04 07:58:03;;;;;;;172.75;28.30;;;;;;;;;;5128739;27;20074;-68
2021/12/04 08:00:29;;;;;;;187.45;28.10;;;;;;;;;;5128403;27;20138;-68
2021/12/04 08:02:55;;;;;;;148.88;29.05;;;;;;;;;;5129684;27;20051;-67
2021/12/04 08:05:22;;;;;;;158.38;27.73;;;;;;;;;;5129515;27;20170;-68
2021/12/04 08:07:50;;;;;;;177.93;29.30;;;;;;;;;;5129589;27;20048;-68
2021/12/04 08:10:18;;;;;;;173.02;28.92;;;;;;;;;;5129008;27;20554;-67
2021/12/04 08:12:44;;;;;;;146.02;27.20;;;;;;;;;;5129706;27;20047;-67
2021/12/04 08:15:11;;;;;;;187.90;30.10;;;;;;;;;;5128254;27;20529;-67
2021/12/04 08:17:38;;;;;;;235.95;29.63;;;;;;;;;;5120468;27;20081;-67
2021/12/04 08:20:05;;;;;;;180.18;28.33;;;;;;;;;;5114070;27;20469;-67
2021/12/04 08:22:33;;;;;;;173.23;29.38;;;;;;;;;;5116045;27;20060;-67
2021/12/04 08:25:00;;;;;;;191.65;28.17;;;;;;;;;;5114783;27;20135;-67
2021/12/04 08:27:26;;;;;;;211.35;29.45;;;;;;;;;;5117265;27;20060;-68
2021/12/04 08:29:53;;;;;;;164.05;28.15;;;;;;;;;;5109633;27;20494;-67
2021/12/04 08:32:23;;;;;;;182.82;29.08;;;;;;;;;;5091338;27;20052;-67
2021/12/04 08:34:52;;;;;;;152.82;28.95;;;;;;;;;;5115466;27;20056;-67
2021/12/04 08:37:18;;;;;;;137.55;27.08;;;;;;;;;;5115436;27;20512;-68
2021/12/04 08:39:45;;;;;;;125.63;27.98;;;;;;;;;;5110181;27;20063;-68
2021/12/04 08:42:11;;;;;;;147.50;27.90;;;;;;;;;;5125085;27;20066;-67
2021/12/04 08:44:38;;;;;;;99.68;24.98;;;;;;;;;;5114025;27;20578;-68
2021/12/04 08:47:04;;;;;;;175.00;27.13;;;;;;;;;;5115216;27;20063;-68
2021/12/04 08:49:32;;;;;;;106.97;24.83;;;;;;;;;;5120536;27;20048;-68
2021/12/04 08:52:00;;;;;;;142.38;26.27;;;;;;;;;;5128460;27;20134;-69
2021/12/04 08:54:26;;;;;;;129.07;26.35;;;;;;;;;;5131720;27;20167;-67
2021/12/04 08:56:52;;;;;;;109.13;23.98;;;;;;;;;;5131840;27;20058;-69
2021/12/04 08:59:19;;;;;;;120.68;22.77;;;;;;;;;;5132039;27;20251;-67
2021/12/04 09:01:45;;;;;;;103.43;22.83;;;;;;;;;;5131608;27;20134;-68
2021/12/04 09:04:17;;;;;;;115.40;24.42;;;;;;;;;;5131113;27;20055;-68
2021/12/04 09:06:44;;;;;;;117.05;23.88;;;;;;;;;;5132501;27;20055;-67
2021/12/04 09:09:12;;;;;;;100.70;22.48;;;;;;;;;;5131896;27;20097;-68
2021/12/04 09:11:41;;;;;;;95.57;21.38;;;;;;;;;;5131377;27;20047;-68
2021/12/04 09:14:08;;;;;;;89.90;21.77;;;;;;;;;;5127824;27;20051;-68
2021/12/04 09:16:35;;;;;;;81.40;21.10;;;;;;;;;;5122144;27;20052;-69
2021/12/04 09:19:02;;;;;;;117.22;21.60;;;;;;;;;;5121851;27;20052;-67
2021/12/04 09:21:29;;;;;;;132.02;24.00;;;;;;;;;;5119398;27;20623;-67
2021/12/04 09:24:13;;;;;;;125.47;23.63;;;;;;;;;;5110204;28;20056;-68
2021/12/04 09:26:51;;;;;;;93.45;21.63;;;;;;;;;;5110707;28;20059;-68
2021/12/04 09:59:22;;;;;;;65.72;19.58;;;;;;;;;;5110200;27;20131;-67
2021/12/04 09:59:46;;;;;;;72.10;20.60;;;;;;;;;;5113549;27;20048;-68
2021/12/04 10:02:27;;;;;;;72.00;20.60;;;;;;;;;;5124251;27;21462;-68
2021/12/04 10:05:11;;;;;;;72.93;20.67;;;;;;;;;;5109340;28;20056;-67
2021/12/04 10:16:00;;;;;;;74.28;22.17;;;;;;;;;;5122821;27;20054;-67
2021/12/04 10:23:58;;;;;;;72.78;21.60;;;;;;;;;;5130468;27;20048;-67
2021/12/04 10:35:19;;;;;;;64.65;20.80;;;;;;;;;;5066520;28;20181;-68
2021/12/04 10:37:51;;;;;;;72.75;22.13;;;;;;;;;;5119959;27;20043;-68
2021/12/04 10:40:18;;;;;;;70.10;21.35;;;;;;;;;;5129385;27;20048;-67
2021/12/04 10:42:50;;;;;;;73.10;21.30;;;;;;;;;;5131353;27;20058;-68
2021/12/04 10:45:17;;;;;;;75.75;22.02;;;;;;;;;;5130323;27;20074;-67
2021/12/04 10:47:54;;;;;;;75.00;20.48;;;;;;;;;;5130710;27;20089;-68
2021/12/04 10:52:58;;;;;;;87.43;23.67;;;;;;;;;;5130054;27;20082;-68
2021/12/04 10:55:33;;;;;;;77.63;22.50;;;;;;;;;;5118408;27;20056;-68
2021/12/04 11:00:55;;;;;;;76.63;24.65;;;;;;;;;;5113953;27;20047;-67
2021/12/04 11:03:37;;;;;;;71.43;21.75;;;;;;;;;;5115247;27;20059;-68
2021/12/04 11:06:32;;;;;;;79.05;24.02;;;;;;;;;;5126024;27;20047;-66
2021/12/04 11:20:57;;;;;;;71.13;21.80;;;;;;;;;;5129319;27;20050;-67
2021/12/04 11:25:55;;;;;;;73.32;23.27;;;;;;;;;;5127773;27;20066;-68
2021/12/04 11:28:43;;;;;;;72.97;22.30;;;;;;;;;;5120096;27;20052;-67
2021/12/04 11:41:59;;;;;;;69.35;23.65;;;;;;;;;;5129263;27;20146;-68
2021/12/04 11:44:45;;;;;;;77.38;24.48;;;;;;;;;;5125654;27;20048;-68
2021/12/04 11:47:12;;;;;;;70.65;22.90;;;;;;;;;;5129322;27;20069;-68
2021/12/04 11:49:38;;;;;;;72.68;23.98;;;;;;;;;;5123647;27;20620;-68
2021/12/04 11:52:11;;;;;;;67.85;23.08;;;;;;;;;;5108636;28;20048;-69
2021/12/04 11:54:46;;;;;;;66.82;24.15;;;;;;;;;;5108647;27;20052;-68
2021/12/04 11:57:14;;;;;;;607.47;66.50;;;;;;;;;;5117182;27;20062;-68
2021/12/04 11:59:41;;;;;;;98.60;27.75;;;;;;;;;;5111071;27;20130;-68
2021/12/04 12:02:09;;;;;;;84.63;25.00;;;;;;;;;;5125998;27;20613;-69
2021/12/04 12:04:36;;;;;;;;;;;;;;;;;;5127513;27;20134;-69
2021/12/04 12:07:10;;;;;;;82.00;23.85;;;;;;;;;;5128080;27;44588;-68
2021/12/04 12:09:39;;;;;;;80.70;25.17;;;;;;;;;;5129029;27;20054;-67
2021/12/04 12:12:07;;;;;;;;;;;;;;;;;;5129693;27;20570;-67
2021/12/04 12:14:48;;;;;;;82.55;25.73;;;;;;;;;;5128657;27;45824;-67
2021/12/04 12:17:16;;;;;;;86.90;26.13;;;;;;;;;;5124215;27;20062;-70
2021/12/04 12:19:49;;;;;;;97.53;28.23;;;;;;;;;;5131369;27;20550;-68
2021/12/04 12:22:35;;;;;;;101.80;27.83;;;;;;;;;;5132763;27;20354;-67
2021/12/04 12:25:32;;;;;;;99.35;27.20;;;;;;;;;;5130015;27;20550;-68
2021/12/04 12:36:45;;;;;;;82.72;27.50;;;;;;;;;;5007846;28;20064;-69
2021/12/04 12:39:13;;;;;;;90.63;29.10;;;;;;;;;;5021201;28;20056;-70
2021/12/04 12:41:41;;;;;;;98.07;28.92;;;;;;;;;;5068626;28;20060;-69
2021/12/04 12:44:14;;;;;;;96.30;29.90;;;;;;;;;;5111486;28;20151;-69
2021/12/04 12:46:48;;;;;;;97.78;31.25;;;;;;;;;;5112051;28;20135;-68
2021/12/04 12:49:21;;;;;;;107.60;32.20;;;;;;;;;;5111427;27;20052;-69
2021/12/04 12:51:56;;;;;;;98.05;29.58;;;;;;;;;;5111576;28;20054;-68
2021/12/04 12:54:25;;;;;;;106.85;30.90;;;;;;;;;;5122397;27;20058;-70
2021/12/04 12:56:51;;;;;;;;;;;;;;;;;;5132741;27;20058;-68
2021/12/04 12:59:32;;;;;;;86.05;29.02;;;;;;;;;;5117295;27;43629;-69
2021/12/04 13:13:28;;;;;;;99.53;30.45;;;;;;;;;;5130583;27;20047;-69
2021/12/04 13:16:00;;;;;;;82.15;27.13;;;;;;;;;;5117448;27;20150;-69
2021/12/04 13:18:27;;;;;;;87.38;28.88;;;;;;;;;;5110983;28;20136;-70
2021/12/04 13:20:59;;;;;;;95.50;32.10;;;;;;;;;;5111392;28;20056;-69
2021/12/04 13:23:26;;;;;;;90.18;33.20;;;;;;;;;;5120274;27;20048;-69
2021/12/04 13:25:54;;;;;;;97.90;29.88;;;;;;;;;;5122816;27;20101;-69
2021/12/04 13:30:49;;;;;;;;;;;;;;;;;;5128149;27;20059;-68
2021/12/04 13:33:15;;;;;;;73.40;22.80;;;;;;;;;;5125584;27;44363;-69
2021/12/04 13:35:47;;;;;;;65.72;22.45;;;;;;;;;;5110952;28;20142;-69
2021/12/04 13:38:15;;;;;;;74.55;23.85;;;;;;;;;;5110200;27;20052;-69
2021/12/04 13:40:44;;;;;;;66.53;23.70;;;;;;;;;;5122886;27;20167;-68
2021/12/04 13:43:12;;;;;;;65.80;22.50;;;;;;;;;;5110935;28;20044;-68
2021/12/04 13:45:39;;;;;;;83.68;23.60;;;;;;;;;;5123327;27;20420;-70
2021/12/04 13:48:06;;;;;;;55.72;21.40;;;;;;;;;;5126178;27;20054;-68
2021/12/04 13:53:02;;;;;;;86.68;24.48;;;;;;;;;;5130669;27;20586;-68
2021/12/04 13:55:30;;;;;;;62.80;22.33;;;;;;;;;;5127691;27;20052;-68
2021/12/04 13:57:57;;;;;;;60.15;22.13;;;;;;;;;;5119944;27;20061;-68
2021/12/04 14:00:23;;;;;;;70.40;22.05;;;;;;;;;;5109732;27;20160;-68
2021/12/04 14:02:50;;;;;;;57.13;20.25;;;;;;;;;;5110772;28;20502;-68
2021/12/04 14:05:18;;;;;;;60.78;21.85;;;;;;;;;;5112629;27;20052;-68
2021/12/04 14:07:52;;;;;;;57.58;21.20;;;;;;;;;;5130989;27;20058;-69
2021/12/04 14:10:41;;;;;;;61.60;21.05;;;;;;;;;;5129253;27;20964;-68
2021/12/04 14:13:09;;;;;;;53.15;19.38;;;;;;;;;;5122983;27;20097;-68
2021/12/04 14:15:35;;;;;;;53.63;19.35;;;;;;;;;;5125275;27;20494;-69
2021/12/04 14:18:06;;;;;;;61.28;19.92;;;;;;;;;;5129444;27;20056;-68
2021/12/04 14:20:33;;;;;;;46.72;18.58;;;;;;;;;;5129881;27;20146;-68
2021/12/04 14:23:00;;;;;;;55.85;18.73;;;;;;;;;;5131431;27;20147;-68
2021/12/04 14:25:28;;;;;;;49.95;19.83;;;;;;;;;;5130478;27;20147;-69
2021/12/04 14:27:56;;;;;;;57.45;19.48;;;;;;;;;;5130319;27;20113;-69
2021/12/04 14:30:25;;;;;;;55.15;18.95;;;;;;;;;;5129100;27;20051;-68
2021/12/04 14:32:55;;;;;;;46.80;18.50;;;;;;;;;;5119777;27;20146;-69
2021/12/04 14:35:28;;;;;;;60.10;17.80;;;;;;;;;;5125851;27;20051;-69
2021/12/04 14:37:55;;;;;;;48.40;18.73;;;;;;;;;;5127594;27;20051;-67
2021/12/04 14:40:29;;;;;;;69.00;19.08;;;;;;;;;;5107292;27;20559;-68
2021/12/04 14:42:56;;;;;;;59.95;16.73;;;;;;;;;;5115980;27;20058;-68
2021/12/04 14:45:24;;;;;;;50.40;17.48;;;;;;;;;;5124274;27;20058;-68
2021/12/04 14:48:10;;;;;;;53.42;17.65;;;;;;;;;;5121604;27;20101;-70
2021/12/04 14:50:38;;;;;;;56.25;16.08;;;;;;;;;;5130048;27;20055;-68
2021/12/04 14:53:05;;;;;;;66.72;18.13;;;;;;;;;;5131212;27;20052;-69
2021/12/04 14:55:33;;;;;;;56.28;17.30;;;;;;;;;;5130703;27;20154;-68
2021/12/04 14:58:01;;;;;;;46.00;15.05;;;;;;;;;;5130044;27;20055;-69
2021/12/04 15:00:29;;;;;;;38.40;12.35;;;;;;;;;;5109428;28;20497;-68
2021/12/04 15:03:19;;;;;;;39.13;11.27;;;;;;;;;;5109357;28;20698;-68
2021/12/04 15:05:50;;;;;;;54.60;13.07;;;;;;;;;;5101774;28;20055;-69
2021/12/04 15:08:19;;;;;;;57.63;14.57;;;;;;;;;;5090625;28;20548;-68
2021/12/04 15:10:47;;;;;;;52.22;14.07;;;;;;;;;;5109414;28;20051;-69
2021/12/04 15:13:18;;;;;;;56.60;14.15;;;;;;;;;;5109369;28;20060;-69
2021/12/04 15:15:45;;;;;;;44.25;12.13;;;;;;;;;;5109790;28;20175;-68
2021/12/04 15:18:14;;;;;;;38.83;11.05;;;;;;;;;;5109086;28;20064;-69
2021/12/04 15:20:48;;;;;;;36.33;11.23;;;;;;;;;;5109618;27;20091;-70
2021/12/04 15:23:20;;;;;;;55.78;12.50;;;;;;;;;;5110313;27;20148;-68
2021/12/04 15:25:49;;;;;;;61.58;11.95;;;;;;;;;;5108660;27;20489;-68
2021/12/04 15:28:15;;;;;;;;;;;;;;;;;;5116409;27;20097;-69
2021/12/04 15:30:43;;;;;;;37.38;9.10;;;;;;;;;;5123533;27;44424;-68
2021/12/04 15:33:19;;;;;;;36.83;9.60;;;;;;;;;;5116553;27;20087;-68
2021/12/04 15:35:49;;;;;;;37.13;11.15;;;;;;;;;;5128871;27;20044;-68
2021/12/04 15:38:24;;;;;;;30.02;8.70;;;;;;;;;;5117044;27;20114;-68
2021/12/04 15:41:07;;;;;;;38.75;9.10;;;;;;;;;;5109442;28;20526;-68
2021/12/04 15:43:41;;;;;;;40.17;9.82;;;;;;;;;;5116285;27;20052;-70
2021/12/04 15:46:19;;;;;;;42.83;10.23;;;;;;;;;;5118710;27;20528;-67
2021/12/04 15:53:56;;;;;;;36.15;10.40;;;;;;;;;;5111127;27;20486;-67
2021/12/04 15:56:27;;;;;;;49.33;11.30;;;;;;;;;;5118617;27;20102;-67
2021/12/04 15:58:53;;;;;;;50.88;12.60;;;;;;;;;;5108947;27;20088;-67
2021/12/04 16:01:25;;;;;;;62.20;13.05;;;;;;;;;;5111771;27;20074;-66
2021/12/04 16:03:53;;;;;;;33.53;9.85;;;;;;;;;;5124438;27;20079;-68
2021/12/04 16:06:19;;;;;;;44.13;11.68;;;;;;;;;;5126112;27;20058;-67
2021/12/04 16:08:46;;;;;;;77.10;14.27;;;;;;;;;;5122866;27;20490;-67
2021/12/04 16:11:14;;;;;;;43.67;11.23;;;;;;;;;;5108511;27;20599;-66
2021/12/04 16:13:48;;;;;;;43.15;11.90;;;;;;;;;;5108551;28;20059;-66
2021/12/04 16:16:19;;;;;;;50.25;12.70;;;;;;;;;;5107608;28;20121;-67
2021/12/04 16:18:46;;;;;;;38.90;11.18;;;;;;;;;;5108244;28;20056;-66
2021/12/04 16:21:13;;;;;;;45.63;12.23;;;;;;;;;;5106976;28;20176;-68
2021/12/04 16:23:41;;;;;;;63.15;16.02;;;;;;;;;;5118418;27;20604;-67
2021/12/04 16:26:11;;;;;;;55.75;13.75;;;;;;;;;;5120008;27;20052;-65
2021/12/04 16:31:35;;;;;;;74.60;18.20;;;;;;;;;;5097896;27;20912;-66
2021/12/04 16:36:41;;;;;;;60.17;16.67;;;;;;;;;;5127051;27;20048;-66
2021/12/04 16:39:10;;;;;;;55.72;17.00;;;;;;;;;;5108297;27;20501;-66
2021/12/04 16:41:38;;;;;;;54.90;14.20;;;;;;;;;;5107903;27;20056;-66
2021/12/04 16:44:07;;;;;;;75.33;16.27;;;;;;;;;;5127245;27;20425;-66
2021/12/04 16:46:38;;;;;;;69.75;15.07;;;;;;;;;;5124411;27;20058;-66
2021/12/04 16:49:06;;;;;;;76.75;19.30;;;;;;;;;;5119790;27;20058;-66
2021/12/04 16:59:19;;;;;;;37.65;12.50;;;;;;;;;;5127513;27;20056;-67
2021/12/04 17:01:47;;;;;;;39.03;11.38;;;;;;;;;;5127614;27;20052;-67
2021/12/04 17:04:14;;;;;;;43.83;13.15;;;;;;;;;;5114797;27;20071;-66
2021/12/04 17:06:41;;;;;;;296.63;32.78;;;;;;;;;;5117809;27;20579;-66
2021/12/04 17:09:08;;;;;;;39.53;13.15;;;;;;;;;;5112530;27;20059;-67
2021/12/04 17:11:34;;;;;;;36.38;11.15;;;;;;;;;;5111294;27;20512;-67
2021/12/04 17:14:01;;;;;;;34.70;10.70;;;;;;;;;;5111073;27;20869;-67
2021/12/04 17:16:27;;;;;;;33.42;10.25;;;;;;;;;;5114330;27;20494;-67
2021/12/04 17:19:01;;;;;;;30.88;9.93;;;;;;;;;;5117042;27;20055;-68
2021/12/04 17:21:28;;;;;;;41.00;13.52;;;;;;;;;;5114845;27;20079;-67
2021/12/04 17:23:55;;;;;;;28.08;11.98;;;;;;;;;;5111728;27;20059;-67
2021/12/04 17:26:21;;;;;;;31.45;10.77;;;;;;;;;;5113490;27;20058;-67
2021/12/04 17:28:48;;;;;;;26.73;11.02;;;;;;;;;;5119903;27;20130;-68
2021/12/04 17:31:20;;;;;;;32.63;10.75;;;;;;;;;;5123111;27;20538;-67